Terminal Aerodrome Forecast
Issued by NWS

Current Version | Previous Version | Text Only | Print | Product List | Glossary On
Versions: 1 2 3 4 5 6 7 8 9 10 11 12 13 14 15 16 17
328
FTUS42 KJAX 281121
TAFVQQ
TAF
KVQQ 281121Z 2812/0112 00000KT 1/4SM FG VV001
     FM281330 VRB02KT 2SM BR BKN010
     FM281430 15007KT P6SM BKN035
     FM010400 16003KT 3SM BR SCT003 BKN010
     FM010800 17002KT 1SM BR BKN002=

USA.gov is the U.S. government's official web portal to all federal, state and local government web resources and services.